Bookmark and Share
Track history (hours):
 

Seastreak Highlands

More information available from US FCC via Universal Licensing System and Coast Guard Vessel Documentation Center.

Last reported at 2014-Apr-18 21:29 UTC. Time now 2014-Apr-21 04:59 UTC.
Position N 40°25' W 074°02'.

Length 44 m; draft 2 m.

Type: High speed craft. MMSI: 367347670.

NotesDate/timePositionNaut miles runAvg speedWind from/ knotsBaromVisibWave heightAir tempDewpointWater temp
2014-Apr-18 21:29N 40°25' W 074°02'0 0.0
2014-Apr-18 20:33N 40°25' W 074°02'0 0.0
2014-Apr-18 19:26N 40°25' W 074°02'0 0.0
2014-Apr-18 18:28N 40°25' W 074°02'0 0.0
2014-Apr-18 17:32N 40°25' W 074°02'0 0.0
2014-Apr-18 16:25N 40°25' W 074°02'0 0.0
2014-Apr-18 15:33N 40°25' W 074°02'2 0.0
2014-Apr-17 00:10N 40°25' W 073°60'1 1.5
2014-Apr-16 23:32N 40°25' W 074°00'1818.4
2014-Apr-16 22:34N 40°43' W 073°58'1813.5
2014-Apr-16 21:14N 40°25' W 074°00'1725.0
2014-Apr-16 20:33N 40°42' W 074°00'4 0.6
2014-Apr-16 13:11N 40°46' W 073°57'813.5
2014-Apr-16 12:34N 40°38' W 074°02'4 3.7
2014-Apr-16 11:30N 40°35' W 074°02'3 3.7
2014-Apr-16 10:34N 40°38' W 074°03'5 0.4
2014-Apr-15 23:06N 40°33' W 074°02'1120.6
2014-Apr-15 22:33N 40°44' W 073°58'1918.3
2014-Apr-15 21:31N 40°25' W 074°02'1717.5
2014-Apr-15 20:34N 40°42' W 074°00'5 5.3
2014-Apr-15 19:33N 40°47' W 073°57'8 1.0
2014-Apr-15 11:34N 40°40' W 074°02'0 0.0
2014-Apr-15 09:34N 40°40' W 074°02'15 1.3
2014-Apr-14 22:34N 40°25' W 074°00'1918.8
2014-Apr-14 21:33N 40°44' W 073°58'1918.4
2014-Apr-14 20:30N 40°25' W 074°00'1718.5
2014-Apr-14 19:34N 40°42' W 074°00'5 1.1
2014-Apr-14 14:33N 40°47' W 073°57'0 0.0
2014-Apr-14 13:34N 40°47' W 073°57'8 4.0
2014-Apr-14 11:34N 40°40' W 074°02'8 7.9
2014-Apr-14 10:31N 40°31' W 074°02'9 9.2
2014-Apr-14 09:34N 40°40' W 074°02'1514.5
2014-Apr-14 08:34N 40°26' W 074°01'  
2014-Apr-11 23:07N 40°33' W 074°02'1220.9
2014-Apr-11 22:34N 40°44' W 073°58'1918.8
2014-Apr-11 21:33N 40°25' W 074°01'1716.8
2014-Apr-11 20:33N 40°42' W 074°00'5 4.2
2014-Apr-11 19:18N 40°47' W 073°57'0 0.0
2014-Apr-11 18:08N 40°47' W 073°57'0 0.0
2014-Apr-11 16:07N 40°47' W 073°57'0 0.0
2014-Apr-11 13:16N 40°47' W 073°56'811.7
2014-Apr-11 12:34N 40°39' W 074°02'6 5.8
2014-Apr-11 11:27N 40°33' W 074°02'7 7.9
2014-Apr-11 10:34N 40°40' W 074°02'16 1.5
2014-Apr-11 00:24N 40°25' W 073°60'0 0.0
2014-Apr-10 23:30N 40°25' W 073°60'2021.2
2014-Apr-10 22:34N 40°44' W 073°58'2016.8
2014-Apr-10 21:23N 40°25' W 073°60'1821.3
2014-Apr-10 20:34N 40°42' W 074°00'5 3.7
2014-Apr-10 19:08N 40°47' W 073°57'0 0.0
2014-Apr-10 17:16N 40°47' W 073°57'1 0.2
2014-Apr-10 13:11N 40°46' W 073°57'812.4
2014-Apr-10 12:34N 40°39' W 074°02'6 5.1
2014-Apr-10 11:29N 40°34' W 074°02'6 6.6
2014-Apr-10 10:34N 40°40' W 074°02'5 0.4
2014-Apr-09 23:05N 40°34' W 074°02'1019.1
2014-Apr-09 22:34N 40°44' W 073°58'1611.6
2014-Apr-09 21:11N 40°28' W 074°01'1422.9
2014-Apr-09 20:33N 40°42' W 074°00'5 2.7
2014-Apr-09 18:33N 40°47' W 073°57'0 0.0
2014-Apr-09 14:32N 40°47' W 073°57'1 0.7
2014-Apr-09 13:10N 40°46' W 073°57'813.3
2014-Apr-09 12:34N 40°39' W 074°02'4 3.4
2014-Apr-09 11:24N 40°35' W 074°02'4 5.1
2014-Apr-09 10:34N 40°39' W 074°02'15 1.3
2014-Apr-08 23:30N 40°25' W 073°60'1920.3
2014-Apr-08 22:34N 40°44' W 073°58'  

Dump ship's entire track history

sailing weather and tide predictions

Seastreak Highlands — WDE4031 — position and weather